This is the latest recevied weather packets stored in our database for station/object K6TTR. If no packets are shown the sender has not sent any weather packets the latest 1 day(s).
| Time | Temp. | Humidity | Pressure | Rain* | Wind** | Luminosity | Snow |
|---|---|---|---|---|---|---|---|
| 1778032135 | 20.56° C | 35% | 1013.6 hPa | 0 mm | 0 m/s | 76 W/m² | - |
| 1778031818 | 20.56° C | 35% | 1013.6 hPa | 0 mm | 0 m/s | 104 W/m² | - |
| 1778031525 | 20.56° C | 36% | 1013.6 hPa | 0 mm | 0 m/s | 88 W/m² | - |
| 1778031229 | 20.56° C | 35% | 1013.5 hPa | 0 mm | 1.79 m/s, 355° | 62 W/m² | - |
| 1778030915 | 20.56° C | 35% | 1013.5 hPa | 0 mm | 1.79 m/s, 58° | 49 W/m² | - |
| 1778030620 | 20.56° C | 35% | 1013.5 hPa | 0 mm | 0.45 m/s, 328° | 167 W/m² | - |
| 1778030327 | 20.56° C | 35% | 1013.5 hPa | 0 mm | 0.89 m/s, 355° | 83 W/m² | - |
| 1778030013 | 20.56° C | 36% | 1013.5 hPa | 0 mm | 1.79 m/s, 324° | 70 W/m² | - |
| 1778029717 | 20.56° C | 38% | 1012.7 hPa | 0 mm | 0 m/s | 63 W/m² | - |
| 1778029422 | 20.56° C | 37% | 1012.7 hPa | 0 mm | 0 m/s | 69 W/m² | - |
| 1778029129 | 20.56° C | 36% | 1012.8 hPa | 0 mm | 1.79 m/s, 346° | 40 W/m² | - |
| 1778028835 | 21.11° C | 36% | 1012.9 hPa | 0 mm | 3.13 m/s, 341° | 135 W/m² | - |
| 1778028515 | 21.11° C | 36% | 1012.8 hPa | 0 mm | 2.68 m/s, 338° | 102 W/m² | - |
| 1778028220 | 21.11° C | 35% | 1012.6 hPa | 0 mm | 1.79 m/s, 24° | 171 W/m² | - |
| 1778027926 | 21.11° C | 34% | 1012.7 hPa | 0 mm | 0 m/s | 320 W/m² | - |
| 1778027612 | 20.56° C | 35% | 1012.8 hPa | 0 mm | 0 m/s | 118 W/m² | - |
| 1778027317 | 20.56° C | 34% | 1012.9 hPa | 0 mm | 0.89 m/s, 344° | 422 W/m² | - |
| 1778027023 | 21.11° C | 34% | 1012.8 hPa | 0 mm | 1.34 m/s, 342° | 359 W/m² | - |
| 1778026727 | 21.11° C | 35% | 1012.8 hPa | 0 mm | 4.47 m/s, 5° | 188 W/m² | - |
| 1778026414 | 21.11° C | 35% | 1012.7 hPa | 0 mm | 0 m/s | 139 W/m² | - |
| 1778026133 | 21.11° C | 34% | 1012.8 hPa | 0 mm | 0.45 m/s, 15° | 125 W/m² | - |
| 1778025826 | 21.11° C | 33% | 1012.8 hPa | 0 mm | 0 m/s | 93 W/m² | - |
| 1778025530 | 21.11° C | 34% | 1012.7 hPa | 0 mm | 0 m/s | 290 W/m² | - |
| 1778025214 | 21.11° C | 34% | 1012.7 hPa | 0 mm | 2.24 m/s, 15° | 148 W/m² | - |
| 1778024918 | 21.11° C | 35% | 1012.7 hPa | 0 mm | 0 m/s | 209 W/m² | - |
* Rain latest hour (hover to see other rain measurements)
** Current wind speed in m/s (hover to see current wind gust speed)